createdAt,value
2016-04-28T00:00:35.591Z,17.46
2016-04-28T00:01:35.624Z,17.37
2016-04-28T00:02:35.641Z,17.41
2016-04-28T00:03:35.645Z,17.46
2016-04-28T00:04:35.695Z,17.36
2016-04-28T00:05:35.697Z,17.43
2016-04-28T00:06:35.731Z,17.26
2016-04-28T00:07:35.750Z,17.41
2016-04-28T00:08:35.768Z,17.37
2016-04-28T00:09:35.785Z,17.34
2016-04-28T00:10:38.554Z,17.38
2016-04-28T00:11:37.651Z,17.3
2016-04-28T00:12:35.873Z,17.3
2016-04-28T00:13:35.876Z,17.36
2016-04-28T00:14:35.893Z,17.43
2016-04-28T00:15:35.911Z,17.36
2016-04-28T00:16:35.946Z,17.4
2016-04-28T00:17:35.964Z,17.34
2016-04-28T00:18:35.998Z,17.41
2016-04-28T00:19:36.000Z,17.43
2016-04-28T00:20:36.050Z,17.34
2016-04-28T00:21:36.053Z,17.28
2016-04-28T00:22:36.087Z,17.33
2016-04-28T00:23:36.089Z,17.41
2016-04-28T00:24:36.123Z,17.36
2016-04-28T00:25:36.829Z,17.37
2016-04-28T00:26:36.176Z,17.31
2016-04-28T00:27:36.178Z,17.31
2016-04-28T00:28:36.211Z,17.37
2016-04-28T00:29:36.231Z,17.34
2016-04-28T00:30:36.249Z,17.31
2016-04-28T00:31:36.267Z,17.19
2016-04-28T00:32:36.285Z,17.22
2016-04-28T00:33:36.304Z,17.31
2016-04-28T00:34:36.338Z,17.37
2016-04-28T00:35:36.355Z,17.34
2016-04-28T00:36:36.374Z,17.22
2016-04-28T00:37:36.393Z,17.21
2016-04-28T00:38:36.427Z,17.44
2016-04-28T00:39:36.429Z,17.34
2016-04-28T00:40:36.479Z,17.36
2016-04-28T00:41:36.528Z,17.33
2016-04-28T00:42:36.516Z,17.21
2016-04-28T00:43:36.534Z,17.4
2016-04-28T00:44:36.552Z,17.33
2016-04-28T00:45:36.570Z,17.31
2016-04-28T00:46:36.589Z,17.23
2016-04-28T00:47:36.623Z,17.19
2016-04-28T00:48:36.625Z,17.26
2016-04-28T00:49:36.659Z,17.21
2016-04-28T00:50:36.678Z,17.22
2016-04-28T00:51:36.712Z,17.16
2016-04-28T00:52:36.730Z,17.25
2016-04-28T00:53:36.748Z,17.36
2016-04-28T00:54:36.767Z,17.26
2016-04-28T00:55:36.800Z,17.16
2016-04-28T00:56:37.350Z,17.28
2016-04-28T00:57:36.822Z,17.31
2016-04-28T00:58:36.839Z,17.23
2016-04-28T00:59:36.874Z,17.23
2016-04-28T01:00:36.877Z,17.15
2016-04-28T01:01:36.910Z,17.23
2016-04-28T01:02:36.944Z,17.18
2016-04-28T01:03:36.963Z,17.15
2016-04-28T01:04:36.981Z,17.18
2016-04-28T01:05:36.999Z,17.22
2016-04-28T01:06:37.018Z,17.28
2016-04-28T01:07:37.051Z,17.28
2016-04-28T01:08:37.069Z,17.3
2016-04-28T01:09:37.104Z,17.25
2016-04-28T01:10:37.090Z,17.16
2016-04-28T01:11:36.859Z,17.25
2016-04-28T01:12:37.143Z,17.25
2016-04-28T01:13:37.177Z,17.22
2016-04-28T01:14:37.195Z,17.22
2016-04-28T01:15:37.229Z,17.18
2016-04-28T01:16:37.232Z,17.23
2016-04-28T01:17:37.266Z,17.18
2016-04-28T01:18:37.284Z,17.25
2016-04-28T01:19:37.303Z,17.08
2016-04-28T01:20:37.336Z,17.11
2016-04-28T01:21:37.354Z,17.16
2016-04-28T01:22:37.357Z,17.19
2016-04-28T01:23:37.391Z,17.21
2016-04-28T01:24:37.409Z,17.18
2016-04-28T01:25:37.428Z,17.19
2016-04-28T01:26:37.790Z,17.12
2016-04-28T01:27:37.464Z,17.07
2016-04-28T01:28:37.498Z,17.11
2016-04-28T01:29:37.517Z,17.08
2016-04-28T01:30:37.536Z,17.12
2016-04-28T01:31:37.553Z,17.15
2016-04-28T01:32:37.571Z,17.11
2016-04-28T01:33:37.605Z,17.14
2016-04-28T01:34:37.639Z,17.18
2016-04-28T01:35:37.658Z,17.16
2016-04-28T01:36:37.660Z,17.11
2016-04-28T01:37:37.695Z,17.14
2016-04-28T01:38:37.713Z,17.06
2016-04-28T01:39:37.732Z,17.11
2016-04-28T01:40:37.734Z,17.11
2016-04-28T01:41:37.627Z,17.16
2016-04-28T01:42:37.802Z,17.14
2016-04-28T01:43:37.821Z,17.11
2016-04-28T01:44:37.838Z,17.11
2016-04-28T01:45:37.872Z,17.04
2016-04-28T01:46:37.891Z,17.14
2016-04-28T01:47:37.924Z,17.15
2016-04-28T01:48:37.927Z,17.08
2016-04-28T01:49:37.961Z,17.14
2016-04-28T01:50:37.965Z,17.15
2016-04-28T01:51:37.998Z,17.16
2016-04-28T01:52:38.000Z,17.08
2016-04-28T01:53:38.020Z,17.07
2016-04-28T01:54:38.053Z,16.97
2016-04-28T01:55:38.087Z,17.08
2016-04-28T01:56:37.933Z,17
2016-04-28T01:57:38.123Z,17.01
2016-04-28T01:58:38.141Z,17
2016-04-28T01:59:38.161Z,16.98
2016-04-28T02:00:38.178Z,17.01
2016-04-28T02:01:38.211Z,17
2016-04-28T02:02:38.231Z,17
2016-04-28T02:03:38.264Z,17.04
2016-04-28T02:04:38.267Z,17.03
2016-04-28T02:05:38.285Z,17
2016-04-28T02:06:38.319Z,17.04
2016-04-28T02:07:38.338Z,16.97
2016-04-28T02:08:38.372Z,16.89
2016-04-28T02:09:38.374Z,16.97
2016-04-28T02:10:38.408Z,17.01
2016-04-28T02:11:38.146Z,16.97
2016-04-28T02:12:38.460Z,16.94
2016-04-28T02:13:38.463Z,16.83
2016-04-28T02:14:38.496Z,16.89
2016-04-28T02:15:38.516Z,16.94
2016-04-28T02:16:38.518Z,16.86
2016-04-28T02:17:38.552Z,16.86
2016-04-28T02:18:38.571Z,16.91
2016-04-28T02:19:38.604Z,16.88
2016-04-28T02:20:38.623Z,16.89
2016-04-28T02:21:38.625Z,16.85
2016-04-28T02:22:38.493Z,16.94
2016-04-28T02:23:38.668Z,16.89
2016-04-28T02:24:38.702Z,16.75
2016-04-28T02:25:38.751Z,16.78
2016-04-28T02:26:40.770Z,16.86
2016-04-28T02:27:38.756Z,16.89
2016-04-28T02:28:38.791Z,16.79
2016-04-28T02:29:38.793Z,16.85
2016-04-28T02:30:38.828Z,16.86
2016-04-28T02:31:38.830Z,16.82
2016-04-28T02:32:38.864Z,16.85
2016-04-28T02:33:38.898Z,16.85
2016-04-28T02:34:38.916Z,16.81
2016-04-28T02:35:38.935Z,16.76
2016-04-28T02:36:38.953Z,16.81
2016-04-28T02:37:38.987Z,16.78
2016-04-28T02:38:38.989Z,16.78
2016-04-28T02:39:39.022Z,16.86
2016-04-28T02:40:39.026Z,16.83
2016-04-28T02:41:39.858Z,16.79
2016-04-28T02:42:39.078Z,16.82
2016-04-28T02:43:39.096Z,16.68
2016-04-28T02:44:39.131Z,16.71
2016-04-28T02:45:39.133Z,16.81
2016-04-28T02:46:39.167Z,16.79
2016-04-28T02:47:39.185Z,16.75
2016-04-28T02:48:39.220Z,16.68
2016-04-28T02:49:39.238Z,16.76
2016-04-28T02:50:39.256Z,16.76
2016-04-28T02:51:39.274Z,16.78
2016-04-28T02:52:39.292Z,16.66
2016-04-28T02:53:39.311Z,16.66
2016-04-28T02:54:39.329Z,16.7
2016-04-28T02:55:39.363Z,16.73
2016-04-28T02:56:39.601Z,16.81
2016-04-28T02:57:39.400Z,16.76
2016-04-28T02:58:39.418Z,16.81
2016-04-28T02:59:39.436Z,16.78
2016-04-28T03:00:39.471Z,16.85
2016-04-28T03:01:39.473Z,16.91
2016-04-28T03:02:39.523Z,16.68
2016-04-28T03:03:39.509Z,16.71
2016-04-28T03:04:39.544Z,16.71
2016-04-28T03:05:39.578Z,16.78
2016-04-28T03:06:39.580Z,16.88
2016-04-28T03:07:39.598Z,16.91
2016-04-28T03:08:39.633Z,16.86
2016-04-28T03:09:39.651Z,16.83
2016-04-28T03:10:39.669Z,16.76
2016-04-28T03:11:40.250Z,16.86
2016-04-28T03:12:39.737Z,16.7
2016-04-28T03:13:39.739Z,16.76
2016-04-28T03:14:39.774Z,16.7
2016-04-28T03:15:39.777Z,16.75
2016-04-28T03:16:39.810Z,16.7
2016-04-28T03:17:39.813Z,16.73
2016-04-28T03:18:39.847Z,16.68
2016-04-28T03:19:39.865Z,16.75
2016-04-28T03:20:39.883Z,16.7
2016-04-28T03:21:39.918Z,16.66
2016-04-28T03:22:39.936Z,16.57
2016-04-28T03:23:39.938Z,16.73
2016-04-28T03:24:39.816Z,16.67
2016-04-28T03:25:39.991Z,16.63
2016-04-28T03:26:41.431Z,16.71
2016-04-28T03:27:40.059Z,16.78
2016-04-28T03:28:40.061Z,16.6
2016-04-28T03:29:40.065Z,16.61
2016-04-28T03:30:40.082Z,16.64
2016-04-28T03:31:40.132Z,16.58
2016-04-28T03:32:40.119Z,16.71
2016-04-28T03:33:40.153Z,16.57
2016-04-28T03:34:40.187Z,16.63
2016-04-28T03:35:40.189Z,16.6
2016-04-28T03:36:40.223Z,16.58
2016-04-28T03:37:40.242Z,16.57
2016-04-28T03:38:40.261Z,16.66
2016-04-28T03:39:40.278Z,16.53
2016-04-28T03:40:40.311Z,16.63
2016-04-28T03:41:40.425Z,16.58
2016-04-28T03:42:40.349Z,16.56
2016-04-28T03:43:40.367Z,16.56
2016-04-28T03:44:40.385Z,16.66
2016-04-28T03:45:40.420Z,16.63
2016-04-28T03:46:40.438Z,16.64
2016-04-28T03:47:40.455Z,16.58
2016-04-28T03:48:40.475Z,16.53
2016-04-28T03:49:40.508Z,16.58
2016-04-28T03:50:40.511Z,16.66
2016-04-28T03:51:40.545Z,16.57
2016-04-28T03:52:40.548Z,16.57
2016-04-28T03:53:40.566Z,16.52
2016-04-28T03:54:40.584Z,16.45
2016-04-28T03:55:40.618Z,16.56
2016-04-28T03:56:40.824Z,16.53
2016-04-28T03:57:40.671Z,16.5
2016-04-28T03:58:40.689Z,16.5
2016-04-28T03:59:40.707Z,16.58
2016-04-28T04:00:40.726Z,16.57
2016-04-28T04:01:40.744Z,16.49
2016-04-28T04:02:40.778Z,16.52
2016-04-28T04:03:40.796Z,16.52
2016-04-28T04:04:40.799Z,16.56
2016-04-28T04:05:40.848Z,16.45
2016-04-28T04:06:40.851Z,16.5
2016-04-28T04:07:40.884Z,16.57
2016-04-28T04:08:40.872Z,16.52
2016-04-28T04:09:40.906Z,16.56
2016-04-28T04:10:40.925Z,16.48
2016-04-28T04:11:40.645Z,16.52
2016-04-28T04:12:40.992Z,16.52
2016-04-28T04:13:40.995Z,16.52
2016-04-28T04:14:40.997Z,16.46
2016-04-28T04:15:41.031Z,16.53
2016-04-28T04:16:41.050Z,16.43
2016-04-28T04:17:41.069Z,16.41
2016-04-28T04:18:41.102Z,16.5
2016-04-28T04:19:41.135Z,16.5
2016-04-28T04:20:41.139Z,16.53
2016-04-28T04:21:41.141Z,16.61
2016-04-28T04:22:41.175Z,16.61
2016-04-28T04:23:41.193Z,16.53
2016-04-28T04:24:41.244Z,16.58
2016-04-28T04:25:41.246Z,16.35
2016-04-28T04:26:41.155Z,16.53
2016-04-28T04:27:41.282Z,16.56
2016-04-28T04:28:41.316Z,16.43
2016-04-28T04:29:41.319Z,16.52
2016-04-28T04:30:41.337Z,16.48
2016-04-28T04:31:41.356Z,16.52
2016-04-28T04:32:41.390Z,16.5
2016-04-28T04:33:41.392Z,16.56
2016-04-28T04:34:41.442Z,16.56
2016-04-28T04:35:41.444Z,16.45
2016-04-28T04:36:41.463Z,16.41
2016-04-28T04:37:41.512Z,16.41
2016-04-28T04:38:41.515Z,16.48
2016-04-28T04:39:41.534Z,16.42
2016-04-28T04:40:41.536Z,16.45
2016-04-28T04:41:41.305Z,16.56
2016-04-28T04:42:41.588Z,16.57
2016-04-28T04:43:41.622Z,16.61
2016-04-28T04:44:41.641Z,16.45
2016-04-28T04:45:41.659Z,16.41
2016-04-28T04:46:41.661Z,16.56
2016-04-28T04:47:41.680Z,16.52
2016-04-28T04:48:41.714Z,16.53
2016-04-28T04:49:41.732Z,16.57
2016-04-28T04:50:41.750Z,16.57
2016-04-28T04:51:41.785Z,16.58
2016-04-28T04:52:41.803Z,16.64
2016-04-28T04:53:41.821Z,16.66
2016-04-28T04:54:41.840Z,16.76
2016-04-28T04:55:41.858Z,16.66
2016-04-28T04:56:43.626Z,16.76
2016-04-28T04:57:41.910Z,16.76
2016-04-28T04:58:41.912Z,16.71
2016-04-28T04:59:41.947Z,16.78
2016-04-28T05:00:41.996Z,16.81
2016-04-28T05:01:41.999Z,17.3
2016-04-28T05:02:41.986Z,17.99
2016-04-28T05:03:42.020Z,18.35
2016-04-28T05:04:42.070Z,18.69
2016-04-28T05:05:42.103Z,18.91
2016-04-28T05:06:42.106Z,19.22
2016-04-28T05:07:42.109Z,19.44
2016-04-28T05:08:42.159Z,19.56
2016-04-28T05:09:42.145Z,19.86
2016-04-28T05:10:42.178Z,19.91
2016-04-28T05:11:42.744Z,19.95
2016-04-28T05:12:42.217Z,20.11
2016-04-28T05:13:42.234Z,20.21
2016-04-28T05:14:42.268Z,20.35
2016-04-28T05:15:42.287Z,20.51
2016-04-28T05:16:42.305Z,20.62
2016-04-28T05:17:42.323Z,20.74
2016-04-28T05:18:42.357Z,20.89
2016-04-28T05:19:42.376Z,20.91
2016-04-28T05:20:42.393Z,20.89
2016-04-28T05:21:42.428Z,21.04
2016-04-28T05:22:42.446Z,20.97
2016-04-28T05:23:42.448Z,21.13
2016-04-28T05:24:42.482Z,21.22
2016-04-28T05:25:42.502Z,21.42
2016-04-28T05:26:43.004Z,21.43
2016-04-28T05:27:42.537Z,21.46
2016-04-28T05:28:42.572Z,21.72
2016-04-28T05:29:42.590Z,21.82
2016-04-28T05:30:42.624Z,22
2016-04-28T05:31:42.626Z,22.35
2016-04-28T05:32:42.661Z,22.51
2016-04-28T05:33:42.678Z,22.72
2016-04-28T05:34:42.698Z,22.94
2016-04-28T05:35:42.731Z,23.15
2016-04-28T05:36:42.748Z,23.43
2016-04-28T05:37:42.767Z,23.57
2016-04-28T05:38:42.787Z,23.9
2016-04-28T05:39:42.820Z,23.98
2016-04-28T05:40:42.822Z,24.3
2016-04-28T05:41:45.247Z,24.46
2016-04-28T05:42:43.625Z,24.83
2016-04-28T05:43:42.909Z,25
2016-04-28T05:44:42.943Z,25.17
2016-04-28T05:45:42.961Z,25.45
2016-04-28T05:46:42.994Z,25.65
2016-04-28T05:47:42.998Z,25.88
2016-04-28T05:48:43.016Z,26.35
2016-04-28T05:49:43.050Z,26.28
2016-04-28T05:50:43.068Z,26.45
2016-04-28T05:51:43.087Z,26.8
2016-04-28T05:52:43.121Z,26.88
2016-04-28T05:53:43.155Z,27.22
2016-04-28T05:54:43.172Z,27.4
2016-04-28T05:55:43.207Z,27.46
2016-04-28T05:56:44.444Z,27.66
2016-04-28T05:57:43.243Z,27.9
2016-04-28T05:58:43.246Z,28.06
2016-04-28T05:59:43.296Z,27.81
2016-04-28T06:00:43.304Z,27.93
2016-04-28T06:01:43.379Z,27.94
2016-04-28T06:02:43.438Z,28.17
2016-04-28T06:03:43.512Z,28.51
2016-04-28T06:04:43.572Z,29.08
2016-04-28T06:05:43.642Z,29.48
2016-04-28T06:06:43.674Z,29.6
2016-04-28T06:07:43.708Z,29.79
2016-04-28T06:08:43.742Z,29.86
2016-04-28T06:09:43.789Z,29.92
2016-04-28T06:10:43.822Z,30.07
2016-04-28T06:11:44.407Z,30.04
2016-04-28T06:12:43.883Z,29.68
2016-04-28T06:13:43.922Z,29.24
2016-04-28T06:14:43.931Z,29.31
2016-04-28T06:15:43.984Z,29.86
2016-04-28T06:16:43.989Z,30.04
2016-04-28T06:17:44.024Z,30.08
2016-04-28T06:18:44.044Z,30.1
2016-04-28T06:19:44.096Z,30.16
2016-04-28T06:20:44.116Z,30.22
2016-04-28T06:21:44.136Z,30.17
2016-04-28T06:22:44.154Z,30
2016-04-28T06:23:44.188Z,29.87
2016-04-28T06:24:44.224Z,29.85
2016-04-28T06:25:44.243Z,29.45
2016-04-28T06:26:44.120Z,29.8
2016-04-28T06:27:44.390Z,29.86
2016-04-28T06:28:44.329Z,29.86
2016-04-28T06:29:44.365Z,29.97
2016-04-28T06:30:44.383Z,29.94
2016-04-28T06:31:44.385Z,29.78
2016-04-28T06:32:44.436Z,29.85
2016-04-28T06:33:44.454Z,29.85
2016-04-28T06:34:44.488Z,29.68
2016-04-28T06:35:44.522Z,29.67
2016-04-28T06:36:44.540Z,29.57
2016-04-28T06:37:44.573Z,29.06
2016-04-28T06:38:44.576Z,28.81
2016-04-28T06:39:44.626Z,28.92
2016-04-28T06:40:44.645Z,29.08
2016-04-28T06:41:44.506Z,28.4
2016-04-28T06:42:44.697Z,27.82
2016-04-28T06:43:44.715Z,27.43
2016-04-28T06:44:44.748Z,27.43
2016-04-28T06:45:44.767Z,27.69
2016-04-28T06:46:44.801Z,27.65
2016-04-28T06:47:44.820Z,27.22
2016-04-28T06:48:44.869Z,26.94
2016-04-28T06:49:44.872Z,27
2016-04-28T06:50:44.921Z,26.92
2016-04-28T06:51:44.925Z,27.51
2016-04-28T06:52:44.942Z,27.81
2016-04-28T06:53:44.992Z,27.93
2016-04-28T06:54:45.025Z,27.96
2016-04-28T06:55:45.044Z,28.02
2016-04-28T06:56:44.922Z,27.9
2016-04-28T06:57:45.440Z,27.96
2016-04-28T06:58:45.130Z,27.77
2016-04-28T06:59:45.148Z,27.87
2016-04-28T07:00:45.198Z,27.6
2016-04-28T07:01:45.202Z,27.28
2016-04-28T07:02:45.251Z,27
2016-04-28T07:03:45.268Z,27.36
2016-04-28T07:04:45.288Z,27.37
2016-04-28T07:05:45.305Z,27.37
2016-04-28T07:06:45.339Z,27.06
2016-04-28T07:07:45.357Z,26.95
2016-04-28T07:08:45.392Z,27.06
2016-04-28T07:09:45.425Z,27.12
2016-04-28T07:10:45.460Z,27.17
2016-04-28T07:11:48.946Z,27.34
2016-04-28T07:12:45.512Z,27.24
2016-04-28T07:13:45.531Z,27.24
2016-04-28T07:14:45.548Z,27.09
2016-04-28T07:15:45.582Z,26.65
2016-04-28T07:16:45.600Z,26.12
2016-04-28T07:17:45.666Z,26.39
2016-04-28T07:18:45.669Z,26.65
2016-04-28T07:19:45.717Z,26.76
2016-04-28T07:20:45.720Z,26.8
2016-04-28T07:21:45.755Z,26.13
2016-04-28T07:22:45.477Z,25.77
2016-04-28T07:23:45.824Z,25.72
2016-04-28T07:24:45.873Z,26.09
2016-04-28T07:25:45.860Z,26.48
2016-04-28T07:26:46.207Z,26.47
2016-04-28T07:27:46.850Z,26.66
2016-04-28T07:28:45.946Z,26.75
2016-04-28T07:29:45.964Z,26.73
2016-04-28T07:30:45.998Z,26.54
2016-04-28T07:31:46.048Z,26.47
2016-04-28T07:32:46.051Z,26.54
2016-04-28T07:33:46.101Z,26.58
2016-04-28T07:34:46.134Z,26.52
2016-04-28T07:35:46.153Z,26.54
2016-04-28T07:36:46.218Z,26.57
2016-04-28T07:37:46.189Z,26.58
2016-04-28T07:38:46.223Z,26.44
2016-04-28T07:39:46.257Z,26.43
2016-04-28T07:40:46.275Z,26.37
2016-04-28T07:41:50.997Z,26.37
2016-04-28T07:42:47.187Z,26.3
2016-04-28T07:43:46.377Z,26.3
2016-04-28T07:44:46.396Z,26.17
2016-04-28T07:45:46.430Z,26.09
2016-04-28T07:46:46.464Z,25.97
2016-04-28T07:47:46.466Z,25.88
2016-04-28T07:48:46.515Z,25.76
2016-04-28T07:49:46.534Z,25.54
2016-04-28T07:50:46.552Z,25.51
2016-04-28T07:51:46.601Z,25.36
2016-04-28T07:52:46.604Z,25.39
2016-04-28T07:53:46.639Z,25.27
2016-04-28T07:54:46.657Z,25.27
2016-04-28T07:55:46.582Z,25.18
2016-04-28T07:56:46.569Z,25.18
2016-04-28T07:57:48.915Z,25.08
2016-04-28T07:58:46.778Z,25.1
2016-04-28T07:59:46.811Z,25.09
2016-04-28T08:00:46.845Z,25.06
2016-04-28T08:01:46.879Z,25.09
2016-04-28T08:02:46.897Z,24.99
2016-04-28T08:03:46.931Z,25.09
2016-04-28T08:04:46.949Z,25.09
2016-04-28T08:05:46.983Z,25.13
2016-04-28T08:06:47.080Z,25.17
2016-04-28T08:07:47.079Z,25.06
2016-04-28T08:08:47.034Z,25.17
2016-04-28T08:09:47.084Z,25.08
2016-04-28T08:10:47.102Z,25.2
2016-04-28T08:11:47.136Z,25.1
2016-04-28T08:12:48.326Z,25.27
2016-04-28T08:13:49.703Z,25.2
2016-04-28T08:14:47.254Z,25.21
2016-04-28T08:15:47.256Z,25.18
2016-04-28T08:16:47.275Z,25.28
2016-04-28T08:17:47.325Z,25.24
2016-04-28T08:18:47.343Z,25.1
2016-04-28T08:19:47.361Z,25.13
2016-04-28T08:20:47.394Z,25.23
2016-04-28T08:21:47.428Z,25.15
2016-04-28T08:22:47.447Z,25.1
2016-04-28T08:23:47.481Z,25.14
2016-04-28T08:24:47.483Z,25.17
2016-04-28T08:25:47.533Z,25.1
2016-04-28T08:26:47.677Z,25.09
2016-04-28T08:27:48.633Z,25.13
2016-04-28T08:28:47.683Z,25.1
2016-04-28T08:29:47.638Z,25.14
2016-04-28T08:30:47.656Z,25.13
2016-04-28T08:31:47.690Z,25.05
2016-04-28T08:32:47.724Z,25.02
2016-04-28T08:33:47.758Z,25.09
2016-04-28T08:34:47.776Z,25.1
2016-04-28T08:35:47.794Z,25.06
2016-04-28T08:36:47.829Z,25.05
2016-04-28T08:37:47.862Z,25
2016-04-28T08:38:47.896Z,24.95
2016-04-28T08:39:47.914Z,24.93
2016-04-28T08:40:47.965Z,24.9
2016-04-28T08:41:47.983Z,24.87
2016-04-28T08:42:48.017Z,24.85
2016-04-28T08:43:48.035Z,24.91
2016-04-28T08:44:48.068Z,24.77
2016-04-28T08:45:48.087Z,24.87
2016-04-28T08:46:48.106Z,24.9
2016-04-28T08:47:48.139Z,24.85
2016-04-28T08:48:48.189Z,24.83
2016-04-28T08:49:48.207Z,24.85
2016-04-28T08:50:48.226Z,24.9
2016-04-28T08:51:48.244Z,24.9
2016-04-28T08:52:48.294Z,24.87
2016-04-28T08:53:48.311Z,24.85
2016-04-28T08:54:48.345Z,24.84
2016-04-28T08:55:48.348Z,24.87
2016-04-28T08:56:49.742Z,25
2016-04-28T08:57:48.416Z,24.85
2016-04-28T08:58:48.450Z,24.71
2016-04-28T08:59:48.452Z,24.47
2016-04-28T09:00:48.486Z,24.28
2016-04-28T09:01:48.536Z,24.39
2016-04-28T09:02:48.555Z,24.37
2016-04-28T09:03:48.589Z,24.32
2016-04-28T09:04:48.607Z,24.47
2016-04-28T09:05:50.422Z,24.34
2016-04-28T09:06:48.675Z,24.34
2016-04-28T09:07:48.693Z,24.31
2016-04-28T09:08:48.727Z,24.32
2016-04-28T09:09:48.729Z,24.31
2016-04-28T09:10:49.638Z,24.21
2016-04-28T09:11:48.688Z,24.35
2016-04-28T09:12:51.254Z,24.3
2016-04-28T09:13:48.851Z,24.16
2016-04-28T09:14:48.884Z,24.13
2016-04-28T09:15:48.918Z,24.08
2016-04-28T09:16:48.936Z,24.03
2016-04-28T09:17:48.814Z,23.94
2016-04-28T09:18:49.004Z,23.95
2016-04-28T09:19:49.022Z,23.93
2016-04-28T09:20:49.072Z,23.93
2016-04-28T09:21:49.137Z,24.02
2016-04-28T09:22:49.092Z,24.03
2016-04-28T09:23:49.127Z,24.09
2016-04-28T09:24:49.145Z,24.15
2016-04-28T09:25:49.179Z,24.31
2016-04-28T09:26:49.244Z,24.3
2016-04-28T09:27:49.544Z,24.24
2016-04-28T09:28:49.265Z,24.28
2016-04-28T09:29:49.299Z,24.34
2016-04-28T09:30:49.316Z,24.34
2016-04-28T09:31:49.366Z,24.4
2016-04-28T09:32:49.386Z,24.43
2016-04-28T09:33:49.419Z,24.34
2016-04-28T09:34:49.421Z,24.37
2016-04-28T09:35:49.455Z,24.39
2016-04-28T09:36:49.990Z,24.45
2016-04-28T09:37:49.493Z,24.42
2016-04-28T09:38:49.526Z,24.43
2016-04-28T09:39:49.560Z,24.5
2016-04-28T09:40:49.562Z,24.5
2016-04-28T09:41:49.659Z,24.49
2016-04-28T09:42:49.335Z,24.46
2016-04-28T09:43:49.681Z,24.53
2016-04-28T09:44:49.699Z,24.55
2016-04-28T09:45:49.732Z,24.47
2016-04-28T09:46:49.767Z,24.5
2016-04-28T09:47:49.769Z,24.46
2016-04-28T09:48:49.803Z,24.61
2016-04-28T09:49:49.822Z,24.47
2016-04-28T09:50:49.856Z,24.49
2016-04-28T09:51:49.889Z,24.5
2016-04-28T09:52:51.970Z,24.49
2016-04-28T09:53:49.926Z,24.49
2016-04-28T09:54:49.944Z,24.5
2016-04-28T09:55:49.994Z,24.53
2016-04-28T09:56:49.996Z,24.52
2016-04-28T09:57:51.624Z,24.47
2016-04-28T09:58:50.064Z,24.57
2016-04-28T09:59:50.083Z,24.62
2016-04-28T10:00:50.148Z,24.55
2016-04-28T10:01:50.150Z,24.65
2016-04-28T10:02:49.888Z,24.77
2016-04-28T10:03:50.188Z,24.76
2016-04-28T10:04:50.237Z,24.87
2016-04-28T10:05:50.255Z,24.8
2016-04-28T10:06:50.274Z,24.85
2016-04-28T10:07:52.339Z,24.91
2016-04-28T10:08:50.327Z,24.87
2016-04-28T10:09:50.360Z,24.85
2016-04-28T10:10:50.425Z,24.84
2016-04-28T10:11:50.428Z,24.84
2016-04-28T10:12:50.914Z,24.77
2016-04-28T10:13:50.479Z,24.83
2016-04-28T10:14:50.499Z,24.69
2016-04-28T10:15:50.532Z,24.87
2016-04-28T10:16:50.534Z,24.77
2016-04-28T10:17:51.584Z,24.83
2016-04-28T10:18:50.587Z,24.83
2016-04-28T10:19:50.636Z,24.91
2016-04-28T10:20:50.656Z,25
2016-04-28T10:21:50.689Z,24.9
2016-04-28T10:22:53.895Z,24.99
2016-04-28T10:23:50.741Z,24.9
2016-04-28T10:24:50.760Z,24.87
2016-04-28T10:25:50.778Z,24.87
2016-04-28T10:26:50.656Z,24.87
2016-04-28T10:27:51.080Z,24.83
2016-04-28T10:28:50.864Z,24.84
2016-04-28T10:29:50.898Z,24.78
2016-04-28T10:30:50.916Z,24.81
2016-04-28T10:31:50.950Z,24.87
2016-04-28T10:32:50.969Z,24.93
2016-04-28T10:33:51.018Z,24.81
2016-04-28T10:34:51.021Z,24.85
2016-04-28T10:35:51.055Z,24.87
2016-04-28T10:36:51.089Z,24.81
2016-04-28T10:37:51.108Z,24.81
2016-04-28T10:38:51.124Z,24.77
2016-04-28T10:39:51.159Z,24.9
2016-04-28T10:40:51.193Z,24.77
2016-04-28T10:41:51.071Z,24.85
2016-04-28T10:42:52.635Z,24.73
2016-04-28T10:43:51.263Z,24.77
2016-04-28T10:44:51.298Z,24.58
2016-04-28T10:45:51.316Z,24.62
2016-04-28T10:46:51.366Z,24.6
2016-04-28T10:47:51.384Z,24.61
2016-04-28T10:48:51.402Z,24.67
2016-04-28T10:49:51.437Z,24.71
2016-04-28T10:50:51.454Z,24.68
2016-04-28T10:51:51.489Z,24.61
2016-04-28T10:52:51.553Z,24.61
2016-04-28T10:53:51.540Z,24.6
2016-04-28T10:54:51.559Z,24.61
2016-04-28T10:55:51.890Z,24.62
2016-04-28T10:56:52.361Z,24.61
2016-04-28T10:57:52.661Z,24.6
2016-04-28T10:58:51.679Z,24.61
2016-04-28T10:59:51.697Z,24.46
2016-04-28T11:00:51.716Z,24.5
2016-04-28T11:01:51.750Z,24.52
2016-04-28T11:02:51.784Z,24.52
2016-04-28T11:03:51.802Z,24.53
2016-04-28T11:04:51.836Z,24.57
2016-04-28T11:05:51.854Z,24.67
2016-04-28T11:06:51.888Z,24.68
2016-04-28T11:07:51.907Z,24.69
2016-04-28T11:08:51.924Z,24.71
2016-04-28T11:09:51.958Z,24.77
2016-04-28T11:10:52.008Z,24.78
2016-04-28T11:11:51.871Z,24.73
2016-04-28T11:12:53.529Z,24.84
2016-04-28T11:13:52.079Z,24.84
2016-04-28T11:14:52.097Z,24.77
2016-04-28T11:15:52.099Z,24.8
2016-04-28T11:16:52.149Z,24.69
2016-04-28T11:17:52.168Z,24.6
2016-04-28T11:18:52.201Z,24.6
2016-04-28T11:19:52.235Z,24.62
2016-04-28T11:20:52.263Z,24.67
2016-04-28T11:21:52.282Z,24.65
2016-04-28T11:22:52.317Z,24.58
2016-04-28T11:23:52.334Z,24.62
2016-04-28T11:24:52.712Z,24.58
2016-04-28T11:25:52.386Z,24.6
2016-04-28T11:26:53.030Z,24.67
2016-04-28T11:27:52.439Z,24.64
2016-04-28T11:28:52.472Z,24.5
2016-04-28T11:29:52.507Z,24.5
2016-04-28T11:30:52.524Z,24.46
2016-04-28T11:31:52.544Z,24.43
2016-04-28T11:32:52.594Z,24.5
2016-04-28T11:33:52.596Z,24.47
2016-04-28T11:34:52.629Z,24.52
2016-04-28T11:35:52.648Z,24.42
2016-04-28T11:36:52.681Z,24.42
2016-04-28T11:37:52.684Z,24.25
2016-04-28T11:38:52.734Z,24.35
2016-04-28T11:39:52.752Z,24.42
2016-04-28T11:40:52.787Z,24.22
2016-04-28T11:41:53.539Z,24.22
2016-04-28T11:42:53.573Z,24.28
2016-04-28T11:43:52.857Z,24.22
2016-04-28T11:44:52.923Z,24.27
2016-04-28T11:45:52.925Z,24.21
2016-04-28T11:46:53.256Z,24.22
2016-04-28T11:47:52.977Z,24.08
2016-04-28T11:48:53.011Z,24
2016-04-28T11:49:53.029Z,23.98
2016-04-28T11:50:53.314Z,24.08
2016-04-28T11:51:53.082Z,24.21
2016-04-28T11:52:53.115Z,24.24
2016-04-28T11:53:53.133Z,24.15
2016-04-28T11:54:53.167Z,24.06
2016-04-28T11:55:53.186Z,24.1
2016-04-28T11:56:53.220Z,24
2016-04-28T11:57:55.879Z,24.03
2016-04-28T11:58:53.288Z,24.08
2016-04-28T11:59:53.306Z,24.15
2016-04-28T12:00:53.325Z,24.13
2016-04-28T12:01:53.343Z,24.03
2016-04-28T12:02:53.361Z,24.05
2016-04-28T12:03:53.410Z,24.13
2016-04-28T12:04:53.429Z,24.24
2016-04-28T12:05:53.463Z,24.28
2016-04-28T12:06:53.497Z,24.28
2016-04-28T12:07:53.499Z,24.35
2016-04-28T12:08:53.549Z,24.4
2016-04-28T12:09:53.567Z,24.43
2016-04-28T12:10:53.601Z,24.53
2016-04-28T12:11:53.620Z,24.42
2016-04-28T12:12:55.466Z,24.4
2016-04-28T12:13:53.671Z,24.37
2016-04-28T12:14:53.706Z,24.39
2016-04-28T12:15:53.740Z,24.3
2016-04-28T12:16:53.743Z,24.34
2016-04-28T12:17:53.776Z,24.37
2016-04-28T12:18:53.795Z,24.25
2016-04-28T12:19:53.845Z,24.27
2016-04-28T12:20:53.863Z,24.32
2016-04-28T12:21:53.897Z,24.28
2016-04-28T12:22:53.900Z,24.37
2016-04-28T12:23:53.964Z,24.39
2016-04-28T12:24:53.951Z,24.47
2016-04-28T12:25:53.985Z,24.42
2016-04-28T12:26:54.003Z,24.43
2016-04-28T12:27:54.053Z,24.42
2016-04-28T12:28:54.072Z,24.5
2016-04-28T12:29:54.090Z,24.53
2016-04-28T12:30:54.124Z,24.46
2016-04-28T12:31:54.158Z,24.46
2016-04-28T12:32:54.177Z,24.49
2016-04-28T12:33:54.211Z,24.52
2016-04-28T12:34:54.227Z,24.52
2016-04-28T12:35:54.262Z,24.45
2016-04-28T12:36:54.280Z,24.62
2016-04-28T12:37:54.315Z,24.61
2016-04-28T12:38:54.333Z,24.47
2016-04-28T12:39:54.367Z,24.43
2016-04-28T12:40:54.385Z,24.47
2016-04-28T12:41:54.419Z,24.46
2016-04-28T12:42:54.344Z,24.5
2016-04-28T12:43:54.488Z,24.5
2016-04-28T12:44:54.520Z,24.58
2016-04-28T12:45:54.539Z,24.6
2016-04-28T12:46:54.557Z,24.62
2016-04-28T12:47:54.576Z,24.61
2016-04-28T12:48:54.609Z,24.64
2016-04-28T12:49:54.643Z,24.76
2016-04-28T12:50:54.818Z,24.64
2016-04-28T12:51:54.681Z,24.6
2016-04-28T12:52:54.714Z,24.49
2016-04-28T12:53:54.733Z,24.61
2016-04-28T12:54:54.782Z,24.55
2016-04-28T12:55:54.784Z,24.6
2016-04-28T12:56:54.819Z,24.77